Time;durP1;ratioP1;P1;durP2;ratioP2;P2;SDS_P1;SDS_P2;PMS_P1;PMS_P2;Temp;Humidity;BMP_temperature;BMP_pressure;BME280_temperature;BME280_humidity;BME280_pressure;Samples;Min_cycle;Max_cycle;Signal;HPM_P1;HPM_P2
2023/08/14 00:01:09;;;;;;;8.33;5.20;;;17.00;99.90;;;;;;5133436;27;20206;-80
2023/08/14 00:03:36;;;;;;;8.53;5.37;;;17.00;99.90;;;;;;5134312;27;20588;-81
2023/08/14 00:06:03;;;;;;;12.20;6.33;;;17.00;99.90;;;;;;5133913;27;20202;-81
2023/08/14 00:08:30;;;;;;;6.53;4.68;;;17.00;99.90;;;;;;5134337;27;20201;-81
2023/08/14 00:10:57;;;;;;;9.75;4.95;;;17.00;99.90;;;;;;5133135;27;20202;-81
2023/08/14 00:13:24;;;;;;;6.55;5.30;;;16.90;99.90;;;;;;5133894;27;20599;-80
2023/08/14 00:15:51;;;;;;;10.30;5.10;;;16.90;99.90;;;;;;5133758;27;20228;-80
2023/08/14 00:18:18;;;;;;;10.07;5.53;;;16.90;99.90;;;;;;5132814;27;20230;-80
2023/08/14 00:20:45;;;;;;;7.30;5.47;;;16.90;99.90;;;;;;5133489;27;20259;-82
2023/08/14 00:23:12;;;;;;;9.00;5.07;;;16.90;99.90;;;;;;5133283;27;20263;-80
2023/08/14 00:25:39;;;;;;;9.73;6.43;;;16.90;99.90;;;;;;5132662;27;20210;-81
2023/08/14 00:28:06;;;;;;;8.33;5.70;;;16.90;99.90;;;;;;5133797;27;20250;-81
2023/08/14 00:30:33;;;;;;;7.85;5.07;;;16.90;99.90;;;;;;5133868;27;20198;-81
2023/08/14 00:33:00;;;;;;;7.00;5.00;;;16.90;99.90;;;;;;5133570;27;20226;-80
2023/08/14 00:35:27;;;;;;;8.43;5.30;;;16.80;99.90;;;;;;5138262;27;20324;-80
2023/08/14 00:37:54;;;;;;;6.95;5.03;;;16.90;99.90;;;;;;5155823;27;20225;-81
2023/08/14 00:40:20;;;;;;;7.37;5.37;;;16.90;99.90;;;;;;5141238;27;20214;-81
2023/08/14 00:42:47;;;;;;;6.43;5.20;;;16.80;99.90;;;;;;5154009;27;20229;-81
2023/08/14 00:45:15;;;;;;;7.43;5.20;;;16.80;99.90;;;;;;5152672;27;20206;-80
2023/08/14 00:47:45;;;;;;;7.47;5.20;;;16.80;99.90;;;;;;5154420;27;20721;-80
2023/08/14 00:50:12;;;;;;;6.73;5.20;;;16.80;99.90;;;;;;5154267;27;20228;-81
2023/08/14 00:52:44;;;;;;;5.90;4.87;;;16.70;99.90;;;;;;5123139;27;20657;-80
2023/08/14 00:55:15;;;;;;;8.77;5.23;;;16.80;99.90;;;;;;5153413;27;20258;-81
2023/08/14 00:57:43;;;;;;;7.50;5.13;;;16.90;99.90;;;;;;5141364;27;20215;-81
2023/08/14 01:00:11;;;;;;;8.93;5.10;;;16.70;99.90;;;;;;5151554;27;20194;-80
2023/08/14 01:02:39;;;;;;;7.90;5.00;;;16.70;99.90;;;;;;5136652;27;20579;-80
2023/08/14 01:05:06;;;;;;;7.20;5.27;;;16.70;99.90;;;;;;5134819;27;20190;-81
2023/08/14 01:07:33;;;;;;;7.80;4.97;;;16.70;99.90;;;;;;5147283;27;20213;-81
2023/08/14 01:10:02;;;;;;;6.30;4.87;;;16.60;99.90;;;;;;5144071;27;20209;-82
2023/08/14 01:12:42;;;;;;;9.70;5.47;;;16.60;99.90;;;;;;5141054;27;20744;-81
2023/08/14 01:15:42;;;;;;;7.33;5.10;;;16.60;99.90;;;;;;5138872;27;20346;-80
2023/08/14 01:18:12;;;;;;;8.93;5.20;;;16.60;99.90;;;;;;5124931;27;20210;-80
2023/08/14 01:20:41;;;;;;;7.20;5.33;;;16.60;99.90;;;;;;5149132;27;20341;-80
2023/08/14 01:24:00;;;;;;;8.30;5.70;;;16.60;99.90;;;;;;5140765;27;20206;-81
2023/08/14 01:26:29;;;;;;;11.97;5.30;;;16.60;99.90;;;;;;5142929;27;20218;-82
2023/08/14 01:28:56;;;;;;;8.00;4.77;;;16.60;99.90;;;;;;5151822;27;20201;-81
2023/08/14 01:31:23;;;;;;;6.83;5.07;;;16.50;99.90;;;;;;5147602;27;20250;-80
2023/08/14 01:33:49;;;;;;;7.00;4.97;;;16.50;99.90;;;;;;5141406;27;20262;-82
2023/08/14 01:36:25;;;;;;;6.43;5.10;;;16.70;99.90;;;;;;5126855;27;20194;-79
2023/08/14 01:39:09;;;;;;;9.43;5.03;;;16.50;99.90;;;;;;5124897;27;20194;-80
2023/08/14 01:42:22;;;;;;;8.90;5.57;;;16.50;99.90;;;;;;5137253;27;20229;-80
2023/08/14 01:44:53;;;;;;;6.13;4.80;;;16.40;99.90;;;;;;5133612;27;20206;-81
2023/08/14 01:47:23;;;;;;;5.87;4.73;;;16.50;99.90;;;;;;5134461;27;20201;-80
2023/08/14 01:49:52;;;;;;;10.10;5.07;;;16.40;99.90;;;;;;5152781;27;20292;-81
2023/08/14 01:52:19;;;;;;;5.53;4.67;;;16.40;99.90;;;;;;5121239;27;20248;-81
2023/08/14 01:54:46;;;;;;;8.57;4.70;;;16.40;99.90;;;;;;5141153;27;20654;-80
2023/08/14 01:57:15;;;;;;;7.67;4.80;;;16.30;99.90;;;;;;5145263;27;20214;-81
2023/08/14 01:59:45;;;;;;;7.57;4.90;;;16.30;99.90;;;;;;5132858;27;20229;-81
2023/08/14 02:02:13;;;;;;;8.40;4.63;;;16.30;99.90;;;;;;5138599;27;20233;-80
2023/08/14 02:04:40;;;;;;;8.30;4.83;;;16.30;99.90;;;;;;5130091;27;20630;-80
2023/08/14 02:07:07;;;;;;;9.90;5.53;;;16.30;99.90;;;;;;5143872;27;20194;-81
2023/08/14 02:09:33;;;;;;;5.47;4.67;;;16.20;99.90;;;;;;5120643;27;20246;-79
2023/08/14 02:12:00;;;;;;;7.17;5.60;;;16.20;99.90;;;;;;5142851;27;20213;-82
2023/08/14 02:14:27;;;;;;;7.73;5.03;;;16.20;99.90;;;;;;5132289;27;20228;-83
2023/08/14 02:16:54;;;;;;;7.43;5.53;;;16.20;99.90;;;;;;5115831;27;20289;-82
2023/08/14 02:19:22;;;;;;;14.83;5.37;;;16.20;99.90;;;;;;5146222;27;20210;-81
2023/08/14 02:21:49;;;;;;;7.33;5.40;;;16.10;99.90;;;;;;5125334;27;20224;-81
2023/08/14 02:24:16;;;;;;;8.57;5.30;;;16.10;99.90;;;;;;5150859;27;20193;-81
2023/08/14 02:26:43;;;;;;;6.13;5.23;;;16.10;99.90;;;;;;5151924;27;20779;-82
2023/08/14 02:29:09;;;;;;;7.43;5.10;;;16.10;99.90;;;;;;5150639;27;20606;-81
2023/08/14 02:31:36;;;;;;;7.60;5.23;;;16.10;99.90;;;;;;5137615;27;20194;-81
2023/08/14 02:34:03;;;;;;;8.07;4.83;;;16.20;99.90;;;;;;5150664;27;20228;-82
2023/08/14 02:36:30;;;;;;;7.53;5.00;;;16.00;99.90;;;;;;5149862;27;20554;-81
2023/08/14 02:38:57;;;;;;;8.53;5.20;;;16.00;99.90;;;;;;5121432;27;20201;-81
2023/08/14 02:41:24;;;;;;;7.43;5.60;;;16.00;99.90;;;;;;5127464;27;20190;-80
2023/08/14 02:43:50;;;;;;;11.33;5.80;;;16.00;99.90;;;;;;5151840;27;20625;-81
2023/08/14 02:46:17;;;;;;;7.57;5.03;;;16.00;99.90;;;;;;5140325;27;20622;-80
2023/08/14 02:48:45;;;;;;;7.87;6.10;;;16.00;99.90;;;;;;5132769;27;20233;-81
2023/08/14 02:51:12;;;;;;;9.43;5.97;;;15.90;99.90;;;;;;5148988;27;20655;-80
2023/08/14 02:53:38;;;;;;;8.23;5.60;;;15.90;99.90;;;;;;5143767;27;20279;-81
2023/08/14 02:56:05;;;;;;;8.10;5.37;;;15.80;99.90;;;;;;5138156;27;20194;-80
2023/08/14 02:58:32;;;;;;;8.07;5.40;;;15.80;99.90;;;;;;5150181;27;20682;-80
2023/08/14 03:01:00;;;;;;;8.87;5.27;;;15.80;99.90;;;;;;5149918;27;20197;-81
2023/08/14 03:03:27;;;;;;;9.93;5.90;;;15.80;99.90;;;;;;5125784;27;20561;-80
2023/08/14 03:05:57;;;;;;;10.77;6.33;;;15.80;99.90;;;;;;5132740;27;20285;-81
2023/08/14 03:08:25;;;;;;;7.60;5.63;;;16.20;99.90;;;;;;5138451;27;20206;-80
2023/08/14 03:10:52;;;;;;;12.83;6.03;;;15.80;99.90;;;;;;5151979;27;20202;-83
2023/08/14 03:13:19;;;;;;;9.40;5.67;;;15.70;99.90;;;;;;5133096;27;20291;-81
2023/08/14 03:15:46;;;;;;;9.53;5.87;;;15.70;99.90;;;;;;5139437;27;20198;-80
2023/08/14 03:18:13;;;;;;;8.47;6.60;;;15.70;99.90;;;;;;5133444;27;20205;-81
2023/08/14 03:20:40;;;;;;;10.30;7.37;;;15.70;99.90;;;;;;5147755;27;20198;-79
2023/08/14 03:23:06;;;;;;;8.00;6.33;;;15.70;99.90;;;;;;5144817;27;20227;-81
2023/08/14 03:25:33;;;;;;;9.83;6.23;;;15.60;99.90;;;;;;5149291;27;20265;-82
2023/08/14 03:28:00;;;;;;;10.60;6.20;;;15.60;99.90;;;;;;5133043;27;20218;-80
2023/08/14 03:30:27;;;;;;;10.17;5.93;;;15.30;99.90;;;;;;5144773;27;20544;-80
2023/08/14 03:32:54;;;;;;;10.83;6.77;;;15.60;99.90;;;;;;5130767;27;20222;-80
2023/08/14 03:35:21;;;;;;;9.73;6.67;;;15.60;99.90;;;;;;5135679;27;20202;-81
2023/08/14 03:37:48;;;;;;;9.93;6.50;;;15.50;99.90;;;;;;5129276;27;20685;-81
2023/08/14 03:40:16;;;;;;;9.60;6.30;;;15.50;99.90;;;;;;5153438;27;20194;-80
2023/08/14 03:42:43;;;;;;;10.53;5.97;;;15.50;99.90;;;;;;5152576;27;20210;-81
2023/08/14 03:45:10;;;;;;;11.13;6.30;;;15.50;99.90;;;;;;5160817;27;20201;-79
2023/08/14 03:47:37;;;;;;;8.93;6.17;;;16.50;99.90;;;;;;5159954;27;20178;-81
2023/08/14 03:50:05;;;;;;;8.77;6.60;;;15.50;99.90;;;;;;5155914;27;20201;-79
2023/08/14 03:52:31;;;;;;;13.17;8.07;;;15.50;99.90;;;;;;5149165;27;20584;-80
2023/08/14 03:54:58;;;;;;;10.80;6.27;;;16.40;99.90;;;;;;5135861;27;20637;-81
2023/08/14 03:57:25;;;;;;;13.63;6.87;;;15.50;99.90;;;;;;5146192;27;20274;-81
2023/08/14 03:59:52;;;;;;;9.10;6.03;;;15.50;99.90;;;;;;5154098;27;20207;-81
2023/08/14 04:02:19;;;;;;;12.93;7.10;;;15.50;99.90;;;;;;5134433;27;20545;-81
2023/08/14 04:04:47;;;;;;;8.33;6.00;;;15.40;99.90;;;;;;5135877;27;20195;-80
2023/08/14 04:07:14;;;;;;;10.47;6.73;;;16.30;99.90;;;;;;5140784;27;20219;-79
2023/08/14 04:09:41;;;;;;;8.03;6.30;;;15.00;99.90;;;;;;5146206;27;20209;-80
2023/08/14 04:12:09;;;;;;;9.97;7.10;;;15.40;99.90;;;;;;5115312;27;20232;-80
2023/08/14 04:14:36;;;;;;;9.43;6.70;;;15.40;99.90;;;;;;5126735;27;20225;-79
2023/08/14 04:17:03;;;;;;;10.73;6.63;;;15.70;99.90;;;;;;5123556;27;20662;-80
2023/08/14 04:19:30;;;;;;;11.60;6.60;;;15.90;99.90;;;;;;5134905;27;20311;-80
2023/08/14 04:21:58;;;;;;;13.40;6.47;;;15.40;99.90;;;;;;5148466;27;20599;-80
2023/08/14 04:24:25;;;;;;;10.47;6.60;;;15.40;99.90;;;;;;5154789;27;20250;-82
2023/08/14 04:26:52;;;;;;;11.97;6.97;;;15.50;99.90;;;;;;5143646;27;20218;-79
2023/08/14 04:29:19;;;;;;;8.40;6.20;;;15.30;99.90;;;;;;5124712;27;20193;-81
2023/08/14 04:31:46;;;;;;;11.50;6.57;;;15.50;99.90;;;;;;5134206;27;20278;-80
2023/08/14 04:34:13;;;;;;;9.83;6.23;;;15.50;99.90;;;;;;5140931;27;20222;-80
2023/08/14 04:36:41;;;;;;;8.47;6.07;;;15.50;99.90;;;;;;5143774;27;20222;-80
2023/08/14 04:39:08;;;;;;;11.83;6.43;;;15.50;99.90;;;;;;5146035;27;20273;-82
2023/08/14 04:41:35;;;;;;;10.63;7.27;;;15.10;99.90;;;;;;5144282;27;20214;-80
2023/08/14 04:44:02;;;;;;;13.00;7.00;;;15.50;99.90;;;;;;5136168;27;20611;-82
2023/08/14 04:46:35;;;;;;;11.90;7.43;;;15.60;99.90;;;;;;5140365;27;20266;-80
2023/08/14 04:49:05;;;;;;;11.80;7.23;;;15.60;99.90;;;;;;5144142;27;20246;-79
2023/08/14 04:52:02;;;;;;;12.50;7.53;;;16.10;99.90;;;;;;5177464;22;20195;-86
2023/08/14 04:54:31;;;;;;;13.13;7.97;;;15.70;99.90;;;;;;5063860;28;20235;-87
2023/08/14 04:57:00;;;;;;;13.90;7.73;;;16.40;99.90;;;;;;5089167;28;20224;-87
2023/08/14 04:59:28;;;;;;;11.90;7.27;;;15.80;99.90;;;;;;5073709;28;20204;-87
2023/08/14 05:01:55;;;;;;;15.63;6.90;;;16.50;99.90;;;;;;5066699;28;20311;-85
2023/08/14 05:04:26;;;;;;;11.67;7.53;;;;;;;;;;5083925;28;20200;-89
2023/08/14 05:06:57;;;;;;;14.57;7.53;;;16.10;99.90;;;;;;5101537;28;20195;-89
2023/08/14 05:09:29;;;;;;;11.07;7.23;;;16.10;99.90;;;;;;5084747;28;20263;-90
2023/08/14 05:12:02;;;;;;;10.00;7.17;;;16.20;99.90;;;;;;5071760;28;20257;-93
2023/08/14 05:14:42;;;;;;;;;;;;;;;;;;;;;
2023/08/14 05:17:11;;;;;;;11.65;6.93;;;16.40;99.90;;;;;;5087772;28;20228;-88
2023/08/14 05:19:38;;;;;;;9.95;6.85;;;16.50;99.90;;;;;;5087817;28;20222;-87
2023/08/14 05:22:06;;;;;;;10.10;6.70;;;16.70;99.90;;;;;;5073483;28;20601;-86
2023/08/14 05:24:33;;;;;;;8.95;6.47;;;16.70;99.90;;;;;;5075140;28;20234;-88
2023/08/14 05:27:03;;;;;;;9.77;6.72;;;16.70;99.90;;;;;;5079415;28;20226;-87
2023/08/14 05:29:33;;;;;;;9.27;6.43;;;17.00;99.90;;;;;;5094382;28;20207;-88
2023/08/14 05:32:04;;;;;;;8.95;6.22;;;17.10;99.90;;;;;;5085202;28;20196;-88
2023/08/14 05:34:42;;;;;;;12.40;7.43;;;17.00;99.90;;;;;;5083327;28;20321;-94
2023/08/14 05:37:14;;;;;;;9.13;6.38;;;17.50;99.90;;;;;;5093854;28;20206;-91
2023/08/14 05:39:44;;;;;;;8.70;6.20;;;18.10;99.90;;;;;;5091154;28;20193;-91
2023/08/14 05:42:11;;;;;;;10.40;6.30;;;17.20;99.90;;;;;;5087323;28;20211;-93
2023/08/14 05:44:42;;;;;;;9.30;6.65;;;18.00;99.90;;;;;;5092714;28;20215;-94
2023/08/14 05:47:13;;;;;;;11.75;7.22;;;17.50;99.90;;;;;;5072574;28;20187;-91
2023/08/14 05:49:45;;;;;;;9.02;7.05;;;17.60;99.90;;;;;;5089059;28;20207;-91
2023/08/14 05:52:15;;;;;;;11.38;6.35;;;17.70;99.90;;;;;;5083081;28;20234;-88
2023/08/14 05:54:46;;;;;;;9.73;6.90;;;17.80;99.90;;;;;;5075027;28;20615;-90
2023/08/14 05:57:20;;;;;;;12.23;7.00;;;18.10;99.90;;;;;;5079915;28;20220;-91
2023/08/14 05:59:51;;;;;;;8.98;6.43;;;18.10;99.90;;;;;;5069660;28;20227;-90
2023/08/14 06:02:21;;;;;;;13.70;6.20;;;18.20;99.90;;;;;;5060623;28;20199;-92
2023/08/14 06:04:54;;;;;;;10.57;6.22;;;18.70;99.90;;;;;;5069220;28;20193;-92
2023/08/14 06:07:28;;;;;;;10.63;6.32;;;18.40;99.90;;;;;;5070234;28;20276;-90
2023/08/14 06:09:57;;;;;;;11.32;6.20;;;18.70;99.90;;;;;;5072204;28;20220;-91
2023/08/14 06:12:31;;;;;;;9.88;5.95;;;18.90;99.90;;;;;;5080732;28;20208;-92
2023/08/14 06:14:59;;;;;;;10.13;6.35;;;19.40;99.90;;;;;;5079364;28;20287;-89
2023/08/14 06:17:27;;;;;;;9.75;6.63;;;18.50;99.90;;;;;;5073779;28;20192;-89
2023/08/14 06:20:00;;;;;;;9.82;6.38;;;18.90;99.90;;;;;;5080003;28;20223;-90
2023/08/14 06:22:27;;;;;;;9.73;6.47;;;18.90;99.90;;;;;;5077785;28;20188;-89
2023/08/14 06:24:57;;;;;;;9.65;6.38;;;19.80;99.90;;;;;;5071408;28;20233;-90
2023/08/14 06:27:25;;;;;;;9.43;6.05;;;19.50;99.90;;;;;;5073189;28;20284;-90
2023/08/14 06:29:54;;;;;;;10.25;5.72;;;19.60;99.90;;;;;;5073471;28;20204;-89
2023/08/14 06:32:27;;;;;;;14.48;6.50;;;20.00;99.90;;;;;;5079885;28;20223;-89
2023/08/14 06:35:04;;;;;;;9.38;5.70;;;19.50;99.90;;;;;;5080102;28;20216;-87
2023/08/14 06:37:33;;;;;;;10.27;7.18;;;19.10;99.90;;;;;;5078320;28;20246;-89
2023/08/14 06:40:14;;;;;;;10.85;6.78;;;19.20;99.90;;;;;;5074682;28;20201;-89
2023/08/14 06:42:44;;;;;;;11.13;6.55;;;19.20;99.90;;;;;;5085032;28;20254;-90
2023/08/14 06:45:11;;;;;;;11.40;7.43;;;19.30;99.90;;;;;;5081255;28;20231;-87
2023/08/14 06:47:44;;;;;;;10.57;6.60;;;20.00;99.90;;;;;;5089218;28;20211;-88
2023/08/14 06:50:13;;;;;;;8.63;6.28;;;19.80;99.90;;;;;;5078876;28;20200;-90
2023/08/14 06:52:40;;;;;;;8.07;6.25;;;20.00;99.90;;;;;;5069801;28;20256;-90
2023/08/14 06:55:20;;;;;;;8.38;6.10;;;;;;;;;;5090934;28;20260;-91
2023/08/14 06:57:48;;;;;;;11.52;6.55;;;19.60;99.90;;;;;;5091877;28;20267;-90
2023/08/14 07:00:17;;;;;;;11.48;6.55;;;19.70;99.90;;;;;;5106956;28;20200;-92
2023/08/14 07:03:04;;;;;;;11.27;6.32;;;20.30;99.90;;;;;;5095622;28;20234;-91
2023/08/14 07:05:33;;;;;;;10.38;6.38;;;20.00;99.90;;;;;;5086250;28;20217;-91
2023/08/14 07:08:00;;;;;;;9.70;6.10;;;20.20;99.90;;;;;;5083326;28;20191;-90
2023/08/14 07:10:44;;;;;;;10.48;5.95;;;20.60;99.90;;;;;;5085340;28;20285;-91
2023/08/14 07:13:18;;;;;;;9.77;5.63;;;20.70;99.90;;;;;;5088042;28;20212;-90
2023/08/14 07:15:47;;;;;;;10.55;5.78;;;21.20;99.90;;;;;;5094030;28;20227;-89
2023/08/14 07:18:17;;;;;;;11.35;6.20;;;21.50;99.90;;;;;;5110093;28;20226;-92
2023/08/14 07:20:45;;;;;;;9.88;5.90;;;21.50;99.90;;;;;;5109741;28;20219;-90
2023/08/14 07:23:23;;;;;;;9.50;5.47;;;21.50;99.90;;;;;;5103327;28;20196;-88
2023/08/14 07:25:52;;;;;;;8.90;4.85;;;23.20;99.90;;;;;;5100504;28;20199;-87
2023/08/14 07:28:20;;;;;;;10.20;5.40;;;23.30;99.90;;;;;;5099591;28;20218;-88
2023/08/14 07:30:47;;;;;;;7.28;4.72;;;;;;;;;;5091143;28;20204;-89
2023/08/14 07:33:15;;;;;;;7.38;5.00;;;24.10;99.90;;;;;;5092272;28;20214;-90
2023/08/14 07:35:44;;;;;;;9.13;4.38;;;24.30;99.90;;;;;;5105854;28;20282;-92
2023/08/14 07:38:18;;;;;;;6.45;4.65;;;24.40;99.90;;;;;;5109276;28;20207;-88
2023/08/14 07:40:58;;;;;;;8.98;4.78;;;24.50;99.90;;;;;;5111938;28;20209;-89
2023/08/14 07:43:25;;;;;;;8.98;4.70;;;24.70;99.90;;;;;;5106399;28;20218;-87
2023/08/14 07:46:00;;;;;;;7.70;5.10;;;24.90;99.90;;;;;;5105831;28;20218;-89
2023/08/14 07:48:28;;;;;;;8.80;4.97;;;25.00;99.90;;;;;;5108529;28;20202;-88
2023/08/14 07:50:58;;;;;;;9.30;5.00;;;25.20;99.90;;;;;;5112025;28;20223;-89
2023/08/14 07:53:27;;;;;;;9.23;5.50;;;25.40;99.90;;;;;;5094364;28;20231;-88
2023/08/14 07:55:55;;;;;;;6.90;4.88;;;25.60;99.90;;;;;;5087288;28;20250;-91
2023/08/14 07:58:26;;;;;;;7.90;5.05;;;25.60;99.90;;;;;;5083541;28;20222;-90
2023/08/14 08:00:56;;;;;;;6.85;4.90;;;25.50;99.90;;;;;;5082559;28;20284;-92
2023/08/14 08:03:24;;;;;;;8.27;5.03;;;25.70;99.90;;;;;;5083627;28;20202;-90
2023/08/14 08:05:56;;;;;;;7.90;4.93;;;26.50;99.90;;;;;;5093466;28;20256;-91
2023/08/14 08:08:30;;;;;;;7.18;5.00;;;26.80;99.90;;;;;;5086030;28;20241;-92
2023/08/14 08:11:00;;;;;;;12.25;5.35;;;27.40;99.90;;;;;;5070756;28;20197;-89
2023/08/14 08:13:27;;;;;;;8.55;4.60;;;27.60;99.90;;;;;;5082879;28;20216;-90
2023/08/14 08:15:56;;;;;;;8.27;4.95;;;27.40;99.90;;;;;;5082020;28;20224;-89
2023/08/14 08:18:31;;;;;;;8.60;4.57;;;27.90;99.90;;;;;;5080615;28;20226;-91
2023/08/14 08:20:59;;;;;;;9.45;4.45;;;26.90;99.90;;;;;;5072573;28;20272;-91
2023/08/14 08:23:33;;;;;;;9.20;4.53;;;27.00;99.90;;;;;;5076374;28;20214;-88
2023/08/14 08:26:03;;;;;;;9.45;4.05;;;27.00;99.90;;;;;;5076971;28;20196;-92
2023/08/14 08:28:31;;;;;;;6.72;3.97;;;27.00;99.90;;;;;;5071486;28;20220;-93
2023/08/14 08:31:01;;;;;;;7.93;4.07;;;27.30;99.90;;;;;;5079575;28;20283;-91
2023/08/14 08:33:32;;;;;;;9.68;4.70;;;27.70;99.90;;;;;;5074398;28;20660;-93
2023/08/14 08:36:03;;;;;;;6.97;4.13;;;28.00;99.90;;;;;;5079377;28;20590;-93
2023/08/14 08:38:35;;;;;;;8.05;3.75;;;28.40;99.90;;;;;;5070283;28;20212;-91
2023/08/14 08:41:05;;;;;;;9.80;3.65;;;29.30;99.90;;;;;;5070753;28;20193;-90
2023/08/14 08:43:34;;;;;;;11.50;3.95;;;;;;;;;;5079022;28;20230;-91
2023/08/14 08:46:09;;;;;;;6.32;3.22;;;29.80;99.90;;;;;;5068292;28;20204;-91
2023/08/14 08:49:10;;;;;;;7.90;3.40;;;30.00;99.90;;;;;;5081668;28;20641;-88
2023/08/14 08:51:40;;;;;;;6.88;3.70;;;30.30;99.90;;;;;;5060204;28;20288;-89
2023/08/14 08:54:14;;;;;;;5.95;3.63;;;30.50;99.90;;;;;;5085988;28;20235;-91
2023/08/14 08:56:46;;;;;;;6.78;3.80;;;30.70;99.90;;;;;;5091154;28;20278;-90
2023/08/14 08:59:25;;;;;;;7.93;3.55;;;31.00;99.90;;;;;;5097131;28;20217;-94
2023/08/14 09:01:56;;;;;;;6.60;2.70;;;31.00;99.90;;;;;;5086537;28;20206;-86
2023/08/14 09:04:24;;;;;;;7.68;2.85;;;31.00;99.90;;;;;;5086540;28;20218;-83
2023/08/14 09:06:52;;;;;;;4.35;2.60;;;30.80;99.90;;;;;;5105270;28;20212;-85
2023/08/14 09:09:21;;;;;;;6.10;3.63;;;30.80;99.90;;;;;;5089118;28;20217;-85
2023/08/14 09:11:51;;;;;;;6.20;2.80;;;30.80;99.90;;;;;;5106716;28;20215;-85
2023/08/14 09:14:21;;;;;;;6.57;3.28;;;30.70;99.90;;;;;;5077249;28;20207;-85
2023/08/14 09:16:53;;;;;;;7.88;3.35;;;30.60;99.90;;;;;;5100700;28;20280;-85
2023/08/14 09:19:20;;;;;;;9.93;3.90;;;30.50;99.90;;;;;;5101666;28;20218;-84
2023/08/14 09:21:50;;;;;;;6.32;3.38;;;30.40;99.90;;;;;;5080250;28;20199;-86
2023/08/14 09:24:18;;;;;;;7.28;3.70;;;30.20;99.90;;;;;;5084291;28;20204;-83
2023/08/14 09:26:47;;;;;;;8.07;3.78;;;30.00;99.90;;;;;;5098990;28;20222;-87
2023/08/14 09:29:15;;;;;;;6.00;3.42;;;30.00;99.90;;;;;;5076787;28;20211;-83
2023/08/14 09:31:45;;;;;;;7.32;2.67;;;30.00;99.90;;;;;;5107150;28;20199;-84
2023/08/14 09:34:18;;;;;;;6.03;2.50;;;29.90;99.90;;;;;;5107187;28;20211;-86
2023/08/14 09:36:47;;;;;;;5.45;2.40;;;29.90;99.90;;;;;;5081639;28;20203;-85
2023/08/14 09:39:17;;;;;;;8.25;2.70;;;29.90;99.90;;;;;;5086904;28;20207;-84
2023/08/14 09:41:48;;;;;;;8.52;2.72;;;29.80;99.90;;;;;;5094744;28;20331;-85
2023/08/14 09:44:19;;;;;;;5.72;2.90;;;29.80;99.90;;;;;;5097671;28;20284;-84
2023/08/14 09:46:51;;;;;;;6.57;2.88;;;29.90;99.90;;;;;;5102655;28;20210;-84
2023/08/14 09:49:19;;;;;;;9.02;3.38;;;30.00;99.90;;;;;;5107118;28;20580;-86
2023/08/14 09:51:58;;;;;;;9.18;2.83;;;29.90;99.90;;;;;;5080751;28;20207;-85
2023/08/14 09:54:33;;;;;;;4.72;2.53;;;29.90;99.90;;;;;;5095398;28;20626;-85
2023/08/14 09:57:05;;;;;;;7.78;2.55;;;29.80;99.90;;;;;;5086472;28;21023;-83
2023/08/14 09:59:35;;;;;;;4.40;2.55;;;29.70;99.90;;;;;;5083822;28;20205;-83
2023/08/14 10:02:05;;;;;;;3.88;2.40;;;29.70;99.90;;;;;;5076791;28;20238;-85
2023/08/14 10:04:34;;;;;;;6.85;2.80;;;29.70;99.90;;;;;;5096581;28;20183;-84
2023/08/14 10:07:02;;;;;;;6.82;2.60;;;29.60;99.90;;;;;;5102895;28;20207;-87
2023/08/14 10:09:32;;;;;;;5.80;2.47;;;29.60;99.90;;;;;;5099263;28;20202;-84
2023/08/14 10:12:10;;;;;;;6.35;2.67;;;29.50;99.90;;;;;;5083875;28;20222;-85
2023/08/14 10:14:39;;;;;;;7.43;2.72;;;29.50;99.90;;;;;;5105018;28;20207;-85
2023/08/14 10:17:16;;;;;;;5.93;2.40;;;29.40;99.90;;;;;;5083961;28;20290;-85
2023/08/14 10:19:44;;;;;;;6.57;2.55;;;29.40;99.90;;;;;;5113199;28;20220;-86
2023/08/14 10:22:17;;;;;;;7.80;3.85;;;29.30;99.90;;;;;;5106003;28;20217;-86
2023/08/14 10:24:53;;;;;;;5.68;2.67;;;29.10;99.90;;;;;;5101422;28;20717;-85
2023/08/14 10:27:22;;;;;;;5.93;2.28;;;29.00;99.90;;;;;;5088504;28;20214;-85
2023/08/14 10:29:53;;;;;;;7.43;2.63;;;28.80;99.90;;;;;;5083711;28;20262;-85
2023/08/14 10:32:21;;;;;;;5.03;2.45;;;28.90;99.90;;;;;;5081710;28;20243;-87
2023/08/14 10:34:52;;;;;;;5.53;2.55;;;28.70;99.90;;;;;;5101727;28;20219;-86
2023/08/14 10:37:52;;;;;;;6.57;2.42;;;28.70;99.90;;;;;;5096237;28;20208;-84
2023/08/14 10:40:35;;;;;;;6.10;2.40;;;28.60;99.90;;;;;;5098081;28;20215;-86
2023/08/14 10:43:05;;;;;;;8.70;3.38;;;28.40;99.90;;;;;;5101765;28;20211;-85
2023/08/14 10:45:33;;;;;;;7.53;3.05;;;28.40;99.90;;;;;;5105135;28;20195;-86
2023/08/14 10:48:11;;;;;;;6.43;2.90;;;28.40;99.90;;;;;;5105234;28;21227;-85
2023/08/14 10:50:39;;;;;;;7.78;2.85;;;28.50;99.90;;;;;;5088410;28;20231;-84
2023/08/14 10:53:06;;;;;;;6.32;2.97;;;28.50;99.90;;;;;;5098913;28;20220;-84
2023/08/14 10:55:47;;;;;;;6.18;2.30;;;28.60;99.90;;;;;;5104896;28;20253;-85
2023/08/14 10:58:35;;;;;;;6.07;2.45;;;28.70;99.90;;;;;;5096592;28;20222;-85
2023/08/14 11:01:06;;;;;;;4.13;2.40;;;28.80;99.90;;;;;;5111092;27;20190;-83
2023/08/14 11:03:53;;;;;;;5.72;2.70;;;29.00;99.90;;;;;;5100215;28;20201;-85
2023/08/14 11:06:27;;;;;;;6.80;2.58;;;29.00;99.90;;;;;;5099378;28;20294;-83
2023/08/14 11:09:03;;;;;;;6.63;2.35;;;29.20;99.90;;;;;;5094856;28;20241;-86
2023/08/14 11:11:31;;;;;;;6.68;2.33;;;29.40;99.90;;;;;;5085287;28;20219;-84
2023/08/14 11:13:58;;;;;;;7.53;2.50;;;29.40;99.90;;;;;;5101566;28;20199;-85
2023/08/14 11:16:25;;;;;;;3.45;2.38;;;29.30;99.90;;;;;;5105659;28;20284;-83
2023/08/14 11:19:00;;;;;;;5.63;1.95;;;29.20;99.90;;;;;;5103564;28;20214;-85
2023/08/14 11:21:27;;;;;;;5.38;2.08;;;29.20;99.90;;;;;;5100627;28;20834;-84
2023/08/14 11:23:58;;;;;;;4.50;2.03;;;29.20;99.90;;;;;;5094880;28;20563;-84
2023/08/14 11:26:32;;;;;;;8.30;2.00;;;29.30;99.90;;;;;;5101185;28;20199;-87
2023/08/14 11:28:59;;;;;;;4.82;2.35;;;29.40;99.90;;;;;;5105771;28;20951;-85
2023/08/14 11:31:26;;;;;;;5.22;2.35;;;29.50;99.90;;;;;;5086744;28;20195;-86
2023/08/14 11:34:06;;;;;;;5.68;2.15;;;29.60;99.90;;;;;;5083867;28;20196;-85
2023/08/14 11:36:41;;;;;;;5.05;2.20;;;29.60;99.90;;;;;;5097128;28;20222;-86
2023/08/14 11:39:10;;;;;;;4.82;1.92;;;29.40;99.90;;;;;;5087493;28;20743;-83
2023/08/14 11:41:37;;;;;;;3.38;1.58;;;29.20;99.90;;;;;;5084646;28;20219;-84
2023/08/14 11:44:04;;;;;;;5.45;1.75;;;29.10;99.90;;;;;;5101159;28;20200;-85
2023/08/14 11:46:31;;;;;;;5.18;1.80;;;29.20;99.90;;;;;;5100391;28;20272;-85
2023/08/14 11:48:58;;;;;;;3.78;2.10;;;29.30;99.90;;;;;;5105334;28;20564;-85
2023/08/14 11:51:28;;;;;;;3.17;1.83;;;29.30;99.90;;;;;;5103493;28;20579;-84
2023/08/14 11:53:55;;;;;;;4.72;2.33;;;29.20;99.90;;;;;;5078808;28;20228;-83
2023/08/14 11:56:22;;;;;;;4.40;2.30;;;29.30;99.90;;;;;;5063570;28;20228;-84
2023/08/14 11:58:49;;;;;;;2.85;1.83;;;29.40;99.90;;;;;;5075560;28;20227;-85
2023/08/14 12:01:37;;;;;;;3.40;2.00;;;29.40;99.90;;;;;;5071446;28;20200;-85
2023/08/14 12:04:06;;;;;;;4.10;2.10;;;29.20;99.90;;;;;;5079413;28;20196;-85
2023/08/14 12:06:36;;;;;;;3.20;1.83;;;29.50;99.90;;;;;;5082173;28;20818;-85
2023/08/14 12:09:07;;;;;;;3.70;2.10;;;29.60;99.90;;;;;;5076277;28;20203;-84
2023/08/14 12:11:37;;;;;;;3.08;1.73;;;29.50;99.90;;;;;;5077025;28;20239;-85
2023/08/14 12:14:11;;;;;;;3.10;1.90;;;29.50;99.90;;;;;;5077931;28;20199;-85
2023/08/14 12:16:39;;;;;;;4.90;2.28;;;29.50;99.90;;;;;;5074023;28;20224;-85
2023/08/14 12:19:11;;;;;;;4.25;2.25;;;29.50;99.90;;;;;;5064099;28;20290;-83
2023/08/14 12:21:38;;;;;;;6.05;2.00;;;29.60;99.90;;;;;;5059528;28;20256;-83
2023/08/14 12:24:06;;;;;;;5.20;2.13;;;29.70;99.90;;;;;;5078051;28;20203;-85
2023/08/14 12:26:44;;;;;;;4.80;1.73;;;29.70;99.90;;;;;;5081589;28;20948;-83
2023/08/14 12:29:15;;;;;;;4.28;2.10;;;29.70;99.90;;;;;;5083928;28;20211;-86
2023/08/14 12:31:42;;;;;;;4.57;1.90;;;29.70;99.90;;;;;;5064915;28;20283;-84
2023/08/14 12:34:09;;;;;;;6.22;2.03;;;29.80;99.90;;;;;;5082193;28;20208;-84
2023/08/14 12:36:36;;;;;;;4.05;2.10;;;29.80;99.90;;;;;;5084985;28;20231;-85
2023/08/14 12:39:04;;;;;;;4.53;1.98;;;29.80;99.90;;;;;;5068712;28;20204;-84
2023/08/14 12:41:31;;;;;;;4.25;1.90;;;30.00;99.90;;;;;;5079252;28;20270;-86
2023/08/14 12:43:58;;;;;;;3.78;1.90;;;30.10;99.90;;;;;;5061002;28;20204;-84
2023/08/14 12:46:25;;;;;;;4.25;2.25;;;30.20;99.90;;;;;;5070694;28;20266;-84
2023/08/14 12:48:55;;;;;;;5.57;1.92;;;30.20;99.90;;;;;;5065361;28;20192;-84
2023/08/14 12:51:22;;;;;;;3.17;1.90;;;30.20;99.90;;;;;;5071520;28;20203;-85
2023/08/14 12:53:49;;;;;;;5.43;1.90;;;30.20;99.90;;;;;;5083540;28;20345;-84
2023/08/14 12:56:16;;;;;;;4.00;1.67;;;30.10;99.90;;;;;;5089098;28;20231;-86
2023/08/14 12:58:45;;;;;;;3.03;1.70;;;30.00;99.90;;;;;;5085479;28;20291;-85
2023/08/14 13:01:15;;;;;;;4.32;1.85;;;29.90;99.90;;;;;;5091824;28;20196;-84
2023/08/14 13:03:42;;;;;;;4.72;1.60;;;29.90;99.90;;;;;;5088572;28;20191;-83